createdAt,value
2019-05-05T00:00:37.189Z,7.70
2019-05-05T00:03:26.670Z,7.20
2019-05-05T00:05:57.394Z,7.40
2019-05-05T00:08:26.713Z,7.97
2019-05-05T00:11:16.798Z,7.07
2019-05-05T00:13:58.417Z,7.27
2019-05-05T00:16:38.274Z,8.30
2019-05-05T00:19:07.915Z,7.23
2019-05-05T00:21:37.474Z,7.07
2019-05-05T00:24:07.101Z,7.70
2019-05-05T00:26:36.663Z,7.53
2019-05-05T00:29:06.251Z,8.00
2019-05-05T00:31:35.914Z,7.87
2019-05-05T00:34:05.360Z,7.00
2019-05-05T00:36:35.357Z,5.63
2019-05-05T00:39:05.167Z,8.03
2019-05-05T00:41:34.818Z,8.27
2019-05-05T00:44:04.855Z,7.50
2019-05-05T00:47:05.397Z,7.27
2019-05-05T00:49:45.691Z,8.80
2019-05-05T00:52:07.457Z,7.63
2019-05-05T00:54:37.158Z,7.60
2019-05-05T00:57:06.798Z,9.10
2019-05-05T00:59:36.427Z,7.83
2019-05-05T01:02:31.077Z,8.00
2019-05-05T01:05:18.507Z,7.90
2019-05-05T01:07:48.215Z,8.27
2019-05-05T01:10:17.895Z,8.30
2019-05-05T01:12:47.351Z,7.20
2019-05-05T01:15:16.980Z,8.33
2019-05-05T01:17:46.574Z,8.60
2019-05-05T01:20:16.195Z,8.87
2019-05-05T01:22:45.766Z,8.37
2019-05-05T01:25:15.467Z,8.27
2019-05-05T01:27:45.423Z,13.43
2019-05-05T01:30:16.832Z,9.10
2019-05-05T01:32:49.355Z,8.50
2019-05-05T01:35:18.691Z,9.80
2019-05-05T01:38:04.872Z,10.17
2019-05-05T01:40:46.727Z,8.60
2019-05-05T01:43:16.059Z,8.87
2019-05-05T01:45:45.606Z,10.00
2019-05-05T01:48:15.385Z,9.57
2019-05-05T01:50:45.319Z,9.57
2019-05-05T01:53:15.282Z,11.73
2019-05-05T01:55:45.272Z,9.30
2019-05-05T01:58:15.318Z,10.37
2019-05-05T02:00:45.505Z,11.10
2019-05-05T02:03:15.177Z,11.87
2019-05-05T02:05:45.294Z,10.47
2019-05-05T02:08:15.396Z,11.10
2019-05-05T02:10:45.449Z,11.23
2019-05-05T02:13:16.116Z,11.27
2019-05-05T02:15:45.849Z,11.73
2019-05-05T02:18:15.468Z,11.50
2019-05-05T02:20:51.857Z,11.50
2019-05-05T02:23:21.480Z,10.77
2019-05-05T02:25:51.019Z,11.80
2019-05-05T02:28:20.661Z,12.17
2019-05-05T02:30:57.396Z,15.33
2019-05-05T02:33:27.070Z,11.47
2019-05-05T02:35:56.637Z,12.57
2019-05-05T02:38:26.468Z,12.80
2019-05-05T02:40:56.060Z,12.10
2019-05-05T02:43:25.713Z,12.60
2019-05-05T02:46:21.459Z,17.03
2019-05-05T02:48:51.594Z,11.37
2019-05-05T02:51:21.401Z,13.00
2019-05-05T02:53:51.249Z,13.27
2019-05-05T02:56:24.879Z,13.90
2019-05-05T02:58:56.499Z,13.63
2019-05-05T03:01:34.350Z,12.87
2019-05-05T03:04:04.053Z,14.47
2019-05-05T03:06:34.278Z,13.87
2019-05-05T03:09:04.656Z,13.57
2019-05-05T03:11:34.428Z,15.73
2019-05-05T03:14:04.405Z,14.87
2019-05-05T03:16:37.255Z,15.87
2019-05-05T03:19:07.304Z,14.43
2019-05-05T03:21:36.879Z,16.83
2019-05-05T03:24:06.810Z,16.30
2019-05-05T03:26:36.580Z,16.33
2019-05-05T03:29:08.646Z,16.93
2019-05-05T03:31:38.361Z,17.40
2019-05-05T03:34:08.054Z,16.63
2019-05-05T03:36:37.705Z,17.70
2019-05-05T03:39:09.824Z,15.53
2019-05-05T03:41:46.002Z,17.70
2019-05-05T03:44:21.244Z,17.67
2019-05-05T03:46:50.877Z,17.90
2019-05-05T03:49:20.636Z,20.03
2019-05-05T03:51:50.405Z,17.50
2019-05-05T03:54:20.186Z,16.27
2019-05-05T03:56:54.452Z,17.63
2019-05-05T03:59:24.388Z,17.83
2019-05-05T04:02:03.806Z,18.53
2019-05-05T04:04:37.160Z,19.37
2019-05-05T04:07:06.665Z,18.53
2019-05-05T04:09:36.432Z,23.40
2019-05-05T04:12:06.005Z,19.43
2019-05-05T04:14:35.619Z,17.57
2019-05-05T04:17:17.785Z,18.27
2019-05-05T04:19:49.939Z,21.80
2019-05-05T04:22:19.598Z,21.13
2019-05-05T04:24:49.230Z,20.23
2019-05-05T04:27:18.777Z,20.47
2019-05-05T04:29:48.512Z,21.03
2019-05-05T04:32:18.137Z,20.13
2019-05-05T04:34:47.935Z,20.63
2019-05-05T04:37:17.375Z,20.63
2019-05-05T04:39:46.720Z,22.60
2019-05-05T04:42:16.110Z,23.77
2019-05-05T04:44:45.456Z,23.60
2019-05-05T04:47:21.002Z,19.40
2019-05-05T04:50:07.999Z,20.10
2019-05-05T04:52:37.386Z,19.57
2019-05-05T04:55:06.763Z,24.13
2019-05-05T04:57:36.171Z,17.43
2019-05-05T05:00:05.857Z,20.70
2019-05-05T05:02:49.535Z,26.63
2019-05-05T05:05:33.724Z,20.60
2019-05-05T05:08:03.826Z,21.33
2019-05-05T05:10:34.588Z,22.43
2019-05-05T05:13:04.700Z,19.80
2019-05-05T05:15:34.190Z,21.47
2019-05-05T05:18:11.211Z,22.27
2019-05-05T05:20:40.555Z,19.70
2019-05-05T05:23:09.940Z,17.80
2019-05-05T05:25:39.277Z,17.50
2019-05-05T05:28:08.709Z,18.67
2019-05-05T05:30:38.081Z,19.00
2019-05-05T05:33:07.480Z,17.23
2019-05-05T05:35:36.828Z,18.67
2019-05-05T05:38:06.205Z,19.07
2019-05-05T05:40:57.505Z,19.80
2019-05-05T05:43:38.828Z,19.37
2019-05-05T05:46:19.481Z,16.37
2019-05-05T05:49:06.617Z,18.70
2019-05-05T05:51:36.045Z,16.00
2019-05-05T05:54:05.433Z,15.70
2019-05-05T05:56:34.794Z,16.50
2019-05-05T05:59:04.200Z,17.77
2019-05-05T06:01:34.572Z,17.73
2019-05-05T06:04:04.224Z,16.03
2019-05-05T06:06:34.687Z,17.00
2019-05-05T06:09:04.518Z,15.53
2019-05-05T06:11:34.420Z,15.73
2019-05-05T06:14:04.183Z,14.37
2019-05-05T06:16:34.177Z,17.23
2019-05-05T06:19:03.844Z,15.30
2019-05-05T06:21:33.719Z,15.97
2019-05-05T06:24:04.439Z,14.90
2019-05-05T06:26:34.398Z,14.80
2019-05-05T06:29:04.393Z,18.00
2019-05-05T06:31:34.253Z,13.13
2019-05-05T06:34:03.889Z,13.53
2019-05-05T06:36:34.031Z,13.90
2019-05-05T06:39:04.880Z,12.27
2019-05-05T06:41:53.916Z,11.90
2019-05-05T06:44:48.059Z,11.63
2019-05-05T06:47:20.381Z,10.17
2019-05-05T06:49:49.767Z,10.47
2019-05-05T06:52:19.109Z,9.50
2019-05-05T06:54:48.508Z,8.50
2019-05-05T06:57:17.854Z,9.67
2019-05-05T06:59:47.239Z,8.83
2019-05-05T07:02:16.599Z,8.60
2019-05-05T07:04:46.002Z,9.03
2019-05-05T07:07:15.338Z,9.80
2019-05-05T07:09:44.718Z,9.67
2019-05-05T07:12:14.122Z,8.60
2019-05-05T07:14:44.605Z,8.13
2019-05-05T07:17:14.292Z,6.97
2019-05-05T07:19:44.974Z,7.07
2019-05-05T07:22:17.602Z,6.60
2019-05-05T07:24:45.651Z,9.50
2019-05-05T07:27:15.242Z,5.90
2019-05-05T07:29:44.888Z,5.53
2019-05-05T07:32:14.452Z,6.60
2019-05-05T07:35:04.073Z,6.43
2019-05-05T07:37:34.401Z,7.07
2019-05-05T07:40:04.521Z,6.60
2019-05-05T07:42:34.156Z,7.30
2019-05-05T07:45:08.387Z,8.37
2019-05-05T07:47:35.447Z,7.43
2019-05-05T07:50:05.219Z,7.83
2019-05-05T07:52:34.765Z,11.20
2019-05-05T07:55:04.394Z,7.53
2019-05-05T07:57:34.245Z,7.47
2019-05-05T08:00:05.436Z,7.10
2019-05-05T08:02:35.117Z,6.83
2019-05-05T08:05:05.030Z,7.43
2019-05-05T08:07:34.737Z,6.77
2019-05-05T08:10:04.723Z,6.03
2019-05-05T08:12:34.332Z,6.10
2019-05-05T08:15:05.039Z,7.57
2019-05-05T08:17:47.652Z,4.87
2019-05-05T08:20:23.666Z,5.30
2019-05-05T08:22:53.729Z,7.20
2019-05-05T08:25:37.515Z,6.53
2019-05-05T08:28:14.691Z,4.97
2019-05-05T08:31:08.175Z,4.30
2019-05-05T08:33:37.813Z,5.27
2019-05-05T08:36:07.639Z,8.43
2019-05-05T08:38:37.227Z,5.20
2019-05-05T08:41:06.856Z,8.40
2019-05-05T08:43:36.444Z,7.63
2019-05-05T08:46:06.092Z,7.17
2019-05-05T08:48:35.673Z,9.13
2019-05-05T08:51:05.279Z,6.63
2019-05-05T08:53:43.385Z,7.83
2019-05-05T08:56:06.070Z,7.37
2019-05-05T08:58:35.736Z,8.87
2019-05-05T09:01:05.388Z,7.30
2019-05-05T09:03:35.048Z,7.83
2019-05-05T09:06:04.879Z,9.93
2019-05-05T09:08:34.846Z,8.03
2019-05-05T09:11:04.928Z,19.20
2019-05-05T09:13:34.552Z,15.30
2019-05-05T09:16:04.296Z,8.43
2019-05-05T09:18:35.613Z,6.70
2019-05-05T09:21:05.255Z,8.70
2019-05-05T09:23:36.584Z,7.13
2019-05-05T09:26:13.880Z,5.23
2019-05-05T09:29:04.294Z,7.00
2019-05-05T09:31:35.517Z,5.80
2019-05-05T09:34:05.054Z,7.67
2019-05-05T09:36:34.877Z,5.70
2019-05-05T09:39:05.048Z,5.47
2019-05-05T09:41:34.668Z,5.50
2019-05-05T09:44:04.412Z,7.40
2019-05-05T09:46:34.145Z,5.23
2019-05-05T09:49:04.668Z,6.30
2019-05-05T09:51:34.834Z,6.43
2019-05-05T09:54:14.143Z,6.77
2019-05-05T09:56:36.193Z,7.17
2019-05-05T09:59:05.884Z,5.13
2019-05-05T10:01:35.553Z,4.43
2019-05-05T10:04:09.005Z,9.37
2019-05-05T10:06:39.144Z,4.67
2019-05-05T10:09:09.171Z,15.20
2019-05-05T10:11:38.692Z,6.63
2019-05-05T10:14:08.341Z,9.90
2019-05-05T10:16:38.186Z,9.20
2019-05-05T10:19:07.972Z,5.50
2019-05-05T10:21:37.547Z,5.60
2019-05-05T10:24:27.104Z,5.30
2019-05-05T10:26:45.451Z,4.30
2019-05-05T10:29:15.193Z,8.60
2019-05-05T10:31:44.778Z,5.07
2019-05-05T10:34:16.306Z,4.90
2019-05-05T10:36:45.956Z,4.90
2019-05-05T10:39:24.436Z,4.87
2019-05-05T10:41:56.147Z,9.03
2019-05-05T10:44:25.483Z,4.77
2019-05-05T10:46:55.113Z,6.87
2019-05-05T10:49:24.796Z,4.63
2019-05-05T10:51:54.513Z,5.47
2019-05-05T10:54:24.216Z,6.20
2019-05-05T10:56:53.852Z,5.30
2019-05-05T10:59:23.865Z,7.63
2019-05-05T11:01:53.885Z,5.70
2019-05-05T11:04:24.376Z,5.93
2019-05-05T11:06:54.609Z,7.93
2019-05-05T11:09:24.552Z,6.17
2019-05-05T11:11:54.172Z,6.53
2019-05-05T11:14:23.788Z,6.47
2019-05-05T11:16:54.630Z,7.40
2019-05-05T11:19:24.467Z,5.77
2019-05-05T11:21:54.102Z,6.67
2019-05-05T11:24:24.071Z,6.00
2019-05-05T11:26:54.096Z,7.40
2019-05-05T11:29:24.191Z,6.77
2019-05-05T11:31:54.395Z,8.97
2019-05-05T11:34:27.365Z,7.43
2019-05-05T11:37:08.546Z,7.20
2019-05-05T11:39:38.173Z,6.70
2019-05-05T11:42:07.719Z,6.07
2019-05-05T11:44:37.414Z,5.90
2019-05-05T11:47:07.144Z,12.10
2019-05-05T11:49:36.814Z,5.57
2019-05-05T11:52:06.375Z,5.33
2019-05-05T11:54:36.026Z,4.90
2019-05-05T11:57:05.765Z,5.60
2019-05-05T11:59:35.346Z,4.83
2019-05-05T12:02:05.665Z,6.33
2019-05-05T12:04:35.273Z,9.53
2019-05-05T12:07:04.950Z,6.20
2019-05-05T12:09:54.914Z,5.40
2019-05-05T12:12:24.721Z,5.10
2019-05-05T12:14:54.872Z,6.20
2019-05-05T12:17:36.782Z,5.80
2019-05-05T12:20:08.547Z,6.83
2019-05-05T12:22:38.105Z,6.97
2019-05-05T12:25:28.530Z,5.33
2019-05-05T12:28:01.668Z,8.53
2019-05-05T12:30:31.264Z,6.00
2019-05-05T12:33:00.939Z,7.00
2019-05-05T12:35:30.580Z,6.30
2019-05-05T12:38:00.233Z,5.83
2019-05-05T12:40:29.879Z,5.00
2019-05-05T12:42:59.522Z,5.47
2019-05-05T12:45:31.386Z,4.40
2019-05-05T12:48:18.349Z,5.30
2019-05-05T12:50:48.272Z,6.17
2019-05-05T12:53:17.958Z,6.47
2019-05-05T12:55:47.611Z,3.97
2019-05-05T12:58:17.238Z,5.70
2019-05-05T13:00:54.315Z,4.63
2019-05-05T13:03:24.053Z,5.63
2019-05-05T13:05:53.662Z,4.33
2019-05-05T13:08:23.516Z,8.30
2019-05-05T13:10:53.515Z,6.27
2019-05-05T13:13:23.683Z,5.67
2019-05-05T13:15:53.705Z,4.53
2019-05-05T13:18:24.548Z,6.33
2019-05-05T13:21:01.213Z,4.97
2019-05-05T13:23:53.871Z,3.73
2019-05-05T13:26:33.256Z,4.40
2019-05-05T13:29:02.941Z,5.57
2019-05-05T13:31:33.780Z,4.93
2019-05-05T13:34:04.406Z,6.10
2019-05-05T13:36:34.078Z,5.17
2019-05-05T13:39:05.448Z,4.30
2019-05-05T13:41:36.675Z,4.53
2019-05-05T13:44:10.000Z,3.97
2019-05-05T13:46:39.541Z,3.73
2019-05-05T13:49:26.659Z,3.53
2019-05-05T13:51:57.935Z,3.53
2019-05-05T13:54:27.579Z,3.57
2019-05-05T13:56:57.321Z,3.87
2019-05-05T13:59:26.909Z,3.17
2019-05-05T14:01:56.640Z,3.20
2019-05-05T14:04:26.272Z,3.90
2019-05-05T14:06:55.932Z,4.23
2019-05-05T14:09:25.596Z,2.30
2019-05-05T14:11:55.348Z,3.20
2019-05-05T14:14:25.015Z,3.17
2019-05-05T14:16:54.675Z,4.20
2019-05-05T14:19:24.941Z,5.97
2019-05-05T14:21:54.686Z,4.83
2019-05-05T14:24:30.692Z,5.80
2019-05-05T14:27:00.265Z,6.50
2019-05-05T14:29:41.428Z,6.20
2019-05-05T14:32:13.618Z,8.10
2019-05-05T14:34:46.946Z,6.47
2019-05-05T14:37:27.399Z,7.00
2019-05-05T14:39:57.054Z,5.60
2019-05-05T14:42:26.687Z,5.40
2019-05-05T14:44:56.359Z,5.87
2019-05-05T14:47:26.007Z,5.77
2019-05-05T14:49:55.579Z,5.93
2019-05-05T14:52:25.363Z,7.73
2019-05-05T14:54:54.860Z,7.20
2019-05-05T14:57:28.440Z,4.67
2019-05-05T14:59:58.291Z,5.37
2019-05-05T15:02:27.955Z,4.30
2019-05-05T15:05:00.100Z,7.70
2019-05-05T15:07:39.075Z,4.93
2019-05-05T15:10:36.637Z,4.80
2019-05-05T15:13:08.609Z,3.13
2019-05-05T15:15:38.516Z,3.77
2019-05-05T15:18:08.414Z,3.83
2019-05-05T15:20:37.940Z,2.80
2019-05-05T15:23:07.628Z,4.50
2019-05-05T15:25:37.389Z,4.90
2019-05-05T15:28:07.090Z,3.67
2019-05-05T15:30:36.894Z,4.00
2019-05-05T15:33:06.578Z,3.90
2019-05-05T15:35:36.232Z,5.20
2019-05-05T15:38:05.856Z,2.80
2019-05-05T15:40:35.450Z,2.37
2019-05-05T15:43:05.098Z,2.80
2019-05-05T15:45:34.729Z,3.20
2019-05-05T15:48:04.667Z,4.43
2019-05-05T15:50:34.391Z,2.77
2019-05-05T15:53:04.067Z,4.27
2019-05-05T15:55:34.012Z,4.30
2019-05-05T15:58:03.773Z,3.50
2019-05-05T16:00:34.496Z,2.70
2019-05-05T16:03:07.058Z,2.80
2019-05-05T16:05:35.652Z,3.77
2019-05-05T16:08:05.332Z,3.40
2019-05-05T16:10:34.870Z,3.63
2019-05-05T16:13:04.594Z,2.43
2019-05-05T16:15:53.558Z,2.60
2019-05-05T16:18:48.671Z,5.67
2019-05-05T16:21:26.351Z,4.13
2019-05-05T16:24:01.105Z,3.00
2019-05-05T16:26:31.877Z,3.70
2019-05-05T16:29:01.472Z,3.73
2019-05-05T16:31:34.113Z,4.57
2019-05-05T16:34:03.887Z,4.67
2019-05-05T16:36:33.691Z,4.87
2019-05-05T16:39:03.465Z,3.87
2019-05-05T16:41:34.061Z,5.53
2019-05-05T16:44:03.819Z,5.13
2019-05-05T16:46:34.146Z,5.30
2019-05-05T16:49:03.910Z,4.67
2019-05-05T16:51:36.996Z,4.37
2019-05-05T16:54:10.936Z,6.87
2019-05-05T16:56:40.853Z,4.07
2019-05-05T16:59:10.531Z,6.33
2019-05-05T17:01:40.094Z,4.93
2019-05-05T17:04:11.604Z,5.40
2019-05-05T17:06:41.614Z,4.87
2019-05-05T17:09:11.428Z,5.77
2019-05-05T17:11:43.970Z,4.10
2019-05-05T17:14:23.483Z,4.73
2019-05-05T17:17:11.229Z,4.90
2019-05-05T17:19:50.330Z,3.07
2019-05-05T17:22:47.792Z,3.13
2019-05-05T17:25:17.473Z,3.53
2019-05-05T17:27:50.934Z,4.77
2019-05-05T17:30:18.711Z,4.43
2019-05-05T17:32:48.304Z,4.83
2019-05-05T17:35:18.848Z,5.23
2019-05-05T17:37:48.240Z,6.73
2019-05-05T17:40:24.977Z,2.70
2019-05-05T17:43:24.366Z,5.03
2019-05-05T17:45:59.829Z,5.40
2019-05-05T17:48:48.215Z,7.07
2019-05-05T17:51:39.731Z,6.73
2019-05-05T17:54:37.057Z,5.83
2019-05-05T17:57:06.708Z,5.80
2019-05-05T17:59:36.375Z,5.53
2019-05-05T18:02:06.029Z,7.10
2019-05-05T18:04:35.593Z,7.30
2019-05-05T18:07:24.038Z,5.37
2019-05-05T18:10:19.246Z,5.13
2019-05-05T18:13:05.879Z,6.63
2019-05-05T18:15:54.373Z,8.90
2019-05-05T18:18:24.059Z,5.30
2019-05-05T18:20:54.271Z,6.27
2019-05-05T18:23:24.020Z,4.20
2019-05-05T18:25:54.837Z,4.10
2019-05-05T18:28:24.794Z,8.17
2019-05-05T18:30:54.506Z,4.27
2019-05-05T18:33:24.731Z,4.93
2019-05-05T18:35:54.468Z,4.50
2019-05-05T18:38:24.259Z,4.33
2019-05-05T18:40:55.709Z,7.83
2019-05-05T18:43:37.786Z,7.80
2019-05-05T18:46:07.584Z,5.60
2019-05-05T18:48:37.253Z,6.70
2019-05-05T18:51:06.664Z,5.20
2019-05-05T18:53:36.101Z,9.70
2019-05-05T18:56:05.766Z,6.70
2019-05-05T18:58:37.126Z,9.77
2019-05-05T19:01:19.803Z,8.23
2019-05-05T19:04:07.023Z,7.40
2019-05-05T19:07:10.527Z,6.23
2019-05-05T19:09:51.060Z,8.03
2019-05-05T19:12:11.508Z,9.20
2019-05-05T19:14:41.159Z,6.77
2019-05-05T19:17:10.729Z,8.07
2019-05-05T19:19:41.818Z,6.47
2019-05-05T19:22:13.863Z,7.80
2019-05-05T19:24:44.059Z,5.73
2019-05-05T19:27:14.257Z,9.33
2019-05-05T19:29:46.056Z,7.90
2019-05-05T19:32:15.207Z,6.23
2019-05-05T19:34:44.855Z,6.23
2019-05-05T19:37:14.727Z,6.07
2019-05-05T19:39:44.548Z,6.90
2019-05-05T19:42:14.470Z,6.57
2019-05-05T19:44:44.240Z,5.70
2019-05-05T19:47:19.406Z,5.33
2019-05-05T19:49:58.128Z,4.40
2019-05-05T19:52:27.732Z,5.33
2019-05-05T19:54:57.319Z,6.03
2019-05-05T19:57:26.911Z,6.13
2019-05-05T19:59:56.636Z,5.30
2019-05-05T20:02:26.314Z,7.00
2019-05-05T20:04:55.947Z,5.70
2019-05-05T20:07:25.534Z,8.00
2019-05-05T20:09:55.197Z,6.90
2019-05-05T20:12:24.823Z,6.70
2019-05-05T20:14:54.864Z,6.57
2019-05-05T20:17:30.021Z,8.37
2019-05-05T20:19:59.611Z,8.17
2019-05-05T20:22:29.303Z,6.60
2019-05-05T20:24:58.705Z,11.33
2019-05-05T20:27:28.356Z,9.47
2019-05-05T20:29:58.024Z,7.70
2019-05-05T20:32:34.238Z,8.70
2019-05-05T20:35:33.837Z,6.93
2019-05-05T20:38:09.766Z,12.67
2019-05-05T20:40:40.788Z,8.97
2019-05-05T20:43:10.368Z,7.80
2019-05-05T20:45:39.931Z,7.20
2019-05-05T20:48:09.723Z,8.03
2019-05-05T20:50:39.284Z,9.53
2019-05-05T20:53:09.138Z,11.23
2019-05-05T20:55:38.755Z,7.50
2019-05-05T20:58:08.576Z,7.80
2019-05-05T21:00:38.170Z,9.20
2019-05-05T21:03:07.825Z,11.53
2019-05-05T21:05:37.489Z,9.67
2019-05-05T21:08:07.105Z,11.20
2019-05-05T21:10:36.680Z,9.83
2019-05-05T21:13:06.315Z,9.27
2019-05-05T21:15:36.007Z,8.13
2019-05-05T21:18:05.657Z,7.97
2019-05-05T21:20:35.447Z,7.47
2019-05-05T21:23:10.893Z,14.53
2019-05-05T21:25:44.506Z,8.40
2019-05-05T21:28:14.749Z,9.33
2019-05-05T21:30:44.424Z,8.37
2019-05-05T21:33:13.969Z,10.83
2019-05-05T21:35:44.176Z,8.70
2019-05-05T21:38:14.296Z,9.60
2019-05-05T21:40:44.148Z,10.67
2019-05-05T21:43:15.356Z,10.53
2019-05-05T21:45:45.311Z,10.73
2019-05-05T21:48:14.897Z,9.33
2019-05-05T21:50:50.534Z,9.03
2019-05-05T21:53:34.278Z,10.07
2019-05-05T21:56:27.673Z,13.03
2019-05-05T21:58:58.153Z,8.73
2019-05-05T22:01:28.859Z,8.80
2019-05-05T22:03:58.515Z,10.40
2019-05-05T22:06:28.156Z,13.60
2019-05-05T22:08:58.274Z,9.10
2019-05-05T22:11:27.880Z,9.50
2019-05-05T22:13:57.525Z,10.67
2019-05-05T22:16:27.124Z,9.80
2019-05-05T22:18:56.803Z,10.80
2019-05-05T22:21:35.991Z,9.90
2019-05-05T22:24:19.365Z,10.07
2019-05-05T22:26:48.977Z,11.20
2019-05-05T22:29:18.658Z,13.13
2019-05-05T22:31:48.847Z,11.00
2019-05-05T22:34:18.503Z,11.63
2019-05-05T22:36:48.150Z,9.90
2019-05-05T22:39:17.842Z,8.70
2019-05-05T22:41:47.573Z,9.07
2019-05-05T22:44:17.130Z,13.30
2019-05-05T22:46:46.769Z,11.00
2019-05-05T22:49:16.514Z,9.67
2019-05-05T22:51:46.207Z,11.47
2019-05-05T22:54:15.820Z,10.27
2019-05-05T22:56:45.550Z,11.10
2019-05-05T22:59:15.307Z,11.03
2019-05-05T23:01:44.999Z,9.37
2019-05-05T23:04:34.770Z,10.10
2019-05-05T23:07:11.257Z,8.13
2019-05-05T23:09:40.846Z,11.00
2019-05-05T23:12:10.507Z,8.23
2019-05-05T23:14:40.165Z,11.10
2019-05-05T23:17:27.411Z,10.53
2019-05-05T23:20:16.301Z,8.93
2019-05-05T23:22:58.971Z,9.13
2019-05-05T23:25:33.565Z,12.40
2019-05-05T23:28:04.096Z,11.40
2019-05-05T23:30:41.631Z,11.30
2019-05-05T23:33:05.134Z,11.63
2019-05-05T23:35:34.781Z,9.47
2019-05-05T23:38:04.446Z,14.90
2019-05-05T23:40:34.086Z,10.50
2019-05-05T23:43:04.514Z,9.90
2019-05-05T23:45:34.334Z,10.70
2019-05-05T23:48:03.902Z,10.40
2019-05-05T23:50:33.908Z,14.10
2019-05-05T23:53:03.528Z,11.50
2019-05-05T23:55:34.422Z,9.80
2019-05-05T23:58:04.215Z,12.57
